sensor_id;sensor_type;location;lat;lon;timestamp;pressure;altitude;pressure_sealevel;temperature;humidity
10460;BME280;54412;51.206;6.888;2023-01-25T00:00:22;102951.34;;;3.75;66.98
10460;BME280;54412;51.206;6.888;2023-01-25T00:02:48;102947.16;;;3.84;66.69
10460;BME280;54412;51.206;6.888;2023-01-25T00:05:13;102940.41;;;4.01;67.89
10460;BME280;54412;51.206;6.888;2023-01-25T00:07:39;102942.19;;;4.01;67.17
10460;BME280;54412;51.206;6.888;2023-01-25T00:10:05;102942.06;;;3.93;66.88
10460;BME280;54412;51.206;6.888;2023-01-25T00:12:31;102937.56;;;3.83;66.81
10460;BME280;54412;51.206;6.888;2023-01-25T00:14:56;102939.84;;;3.61;67.86
10460;BME280;54412;51.206;6.888;2023-01-25T00:17:22;102932.16;;;3.70;67.35
10460;BME280;54412;51.206;6.888;2023-01-25T00:19:48;102932.28;;;3.79;66.79
10460;BME280;54412;51.206;6.888;2023-01-25T00:22:13;102928.75;;;3.75;67.29
10460;BME280;54412;51.206;6.888;2023-01-25T00:24:39;102926.16;;;3.75;67.42
10460;BME280;54412;51.206;6.888;2023-01-25T00:27:05;102927.69;;;3.61;67.83
10460;BME280;54412;51.206;6.888;2023-01-25T00:29:30;102929.47;;;3.65;67.84
10460;BME280;54412;51.206;6.888;2023-01-25T00:36:55;102916.50;;;3.70;67.47
10460;BME280;54412;51.206;6.888;2023-01-25T00:39:23;102926.28;;;3.86;66.96
10460;BME280;54412;51.206;6.888;2023-01-25T00:41:49;102914.66;;;3.64;67.11
10460;BME280;54412;51.206;6.888;2023-01-25T00:44:15;102913.22;;;3.84;66.74
10460;BME280;54412;51.206;6.888;2023-01-25T00:46:40;102906.19;;;3.79;66.86
10460;BME280;54412;51.206;6.888;2023-01-25T00:49:18;102903.44;;;3.70;66.96
10460;BME280;54412;51.206;6.888;2023-01-25T00:51:44;102908.72;;;3.74;67.01
10460;BME280;54412;51.206;6.888;2023-01-25T00:54:10;102899.00;;;3.63;67.38
10460;BME280;54412;51.206;6.888;2023-01-25T00:56:35;102895.34;;;3.50;68.00
10460;BME280;54412;51.206;6.888;2023-01-25T00:59:01;102899.19;;;3.76;66.98
10460;BME280;54412;51.206;6.888;2023-01-25T01:01:27;102895.47;;;3.59;67.54
10460;BME280;54412;51.206;6.888;2023-01-25T01:03:52;102899.75;;;3.54;68.35
10460;BME280;54412;51.206;6.888;2023-01-25T01:06:18;102891.09;;;3.58;68.10
10460;BME280;54412;51.206;6.888;2023-01-25T01:08:44;102896.13;;;3.45;68.00
10460;BME280;54412;51.206;6.888;2023-01-25T01:11:11;102897.94;;;3.50;68.18
10460;BME280;54412;51.206;6.888;2023-01-25T01:13:38;102890.13;;;3.50;68.47
10460;BME280;54412;51.206;6.888;2023-01-25T01:16:08;102895.50;;;3.64;68.04
10460;BME280;54412;51.206;6.888;2023-01-25T01:18:43;102891.16;;;3.61;68.07
10460;BME280;54412;51.206;6.888;2023-01-25T01:21:11;102883.13;;;3.49;68.66
10460;BME280;54412;51.206;6.888;2023-01-25T01:23:38;102891.72;;;3.44;68.99
10460;BME280;54412;51.206;6.888;2023-01-25T01:26:08;102887.63;;;3.59;68.68
10460;BME280;54412;51.206;6.888;2023-01-25T01:28:35;102894.72;;;3.68;68.34
10460;BME280;54412;51.206;6.888;2023-01-25T01:31:27;102891.31;;;3.75;68.17
10460;BME280;54412;51.206;6.888;2023-01-25T01:33:55;102893.75;;;3.61;68.60
10460;BME280;54412;51.206;6.888;2023-01-25T01:36:26;102899.81;;;3.60;68.17
10460;BME280;54412;51.206;6.888;2023-01-25T01:38:52;102896.41;;;3.64;68.40
10460;BME280;54412;51.206;6.888;2023-01-25T01:41:19;102896.41;;;3.66;68.55
10460;BME280;54412;51.206;6.888;2023-01-25T01:43:45;102895.47;;;3.61;68.54
10460;BME280;54412;51.206;6.888;2023-01-25T01:49:09;102903.69;;;3.86;67.71
10460;BME280;54412;51.206;6.888;2023-01-25T01:57:17;102886.56;;;3.45;68.72
10460;BME280;54412;51.206;6.888;2023-01-25T02:00:00;102885.94;;;3.61;68.37
10460;BME280;54412;51.206;6.888;2023-01-25T02:02:28;102884.81;;;3.46;68.99
10460;BME280;54412;51.206;6.888;2023-01-25T02:04:59;102878.81;;;3.51;68.45
10460;BME280;54412;51.206;6.888;2023-01-25T02:07:33;102886.44;;;3.36;69.25
10460;BME280;54412;51.206;6.888;2023-01-25T02:10:01;102877.06;;;3.49;69.25
10460;BME280;54412;51.206;6.888;2023-01-25T02:12:28;102884.78;;;3.43;69.28
10460;BME280;54412;51.206;6.888;2023-01-25T02:14:54;102882.16;;;3.41;68.99
10460;BME280;54412;51.206;6.888;2023-01-25T02:17:31;102876.31;;;3.60;69.03
10460;BME280;54412;51.206;6.888;2023-01-25T02:26:05;102879.75;;;3.56;68.70
10460;BME280;54412;51.206;6.888;2023-01-25T02:28:35;102878.69;;;3.44;69.82
10460;BME280;54412;51.206;6.888;2023-01-25T02:31:02;102876.19;;;3.51;69.19
10460;BME280;54412;51.206;6.888;2023-01-25T02:33:28;102874.75;;;3.71;68.50
10460;BME280;54412;51.206;6.888;2023-01-25T02:38:38;102866.66;;;3.53;68.59
10460;BME280;54412;51.206;6.888;2023-01-25T02:41:36;102866.53;;;3.44;68.67
10460;BME280;54412;51.206;6.888;2023-01-25T02:44:07;102862.25;;;3.49;69.16
10460;BME280;54412;51.206;6.888;2023-01-25T02:46:37;102864.13;;;3.58;68.93
10460;BME280;54412;51.206;6.888;2023-01-25T02:49:06;102868.38;;;3.51;69.17
10460;BME280;54412;51.206;6.888;2023-01-25T02:51:36;102869.41;;;3.62;68.96
10460;BME280;54412;51.206;6.888;2023-01-25T02:54:06;102859.47;;;3.37;69.54
10460;BME280;54412;51.206;6.888;2023-01-25T02:56:32;102864.19;;;3.62;68.96
10460;BME280;54412;51.206;6.888;2023-01-25T02:58:58;102861.19;;;3.37;69.73
10460;BME280;54412;51.206;6.888;2023-01-25T03:01:24;102862.75;;;3.24;70.65
10460;BME280;54412;51.206;6.888;2023-01-25T03:03:50;102862.97;;;3.38;69.97
10460;BME280;54412;51.206;6.888;2023-01-25T03:06:16;102858.78;;;3.47;69.52
10460;BME280;54412;51.206;6.888;2023-01-25T03:08:42;102855.28;;;3.47;69.68
10460;BME280;54412;51.206;6.888;2023-01-25T03:11:08;102860.66;;;3.60;69.69
10460;BME280;54412;51.206;6.888;2023-01-25T03:13:34;102864.16;;;3.59;69.50
10460;BME280;54412;51.206;6.888;2023-01-25T03:16:12;102856.22;;;3.52;69.25
10460;BME280;54412;51.206;6.888;2023-01-25T03:18:39;102848.06;;;3.29;70.30
10460;BME280;54412;51.206;6.888;2023-01-25T03:21:12;102855.19;;;3.42;70.26
10460;BME280;54412;51.206;6.888;2023-01-25T03:23:39;102861.56;;;3.61;69.36
10460;BME280;54412;51.206;6.888;2023-01-25T03:26:08;102856.22;;;3.53;69.58
10460;BME280;54412;51.206;6.888;2023-01-25T03:28:35;102859.22;;;3.82;68.69
10460;BME280;54412;51.206;6.888;2023-01-25T03:31:01;102862.44;;;3.60;68.50
10460;BME280;54412;51.206;6.888;2023-01-25T03:33:27;102852.66;;;3.47;69.67
10460;BME280;54412;51.206;6.888;2023-01-25T03:35:56;102854.28;;;3.40;69.75
10460;BME280;54412;51.206;6.888;2023-01-25T03:38:22;102851.66;;;3.37;69.85
10460;BME280;54412;51.206;6.888;2023-01-25T03:40:48;102851.63;;;3.36;69.84
10460;BME280;54412;51.206;6.888;2023-01-25T03:43:15;102856.09;;;3.44;69.28
10460;BME280;54412;51.206;6.888;2023-01-25T03:45:41;102842.00;;;3.32;69.87
10460;BME280;54412;51.206;6.888;2023-01-25T03:48:06;102843.19;;;3.55;69.28
10460;BME280;54412;51.206;6.888;2023-01-25T03:50:33;102846.56;;;3.46;69.53
10460;BME280;54412;51.206;6.888;2023-01-25T03:52:58;102841.34;;;3.46;69.47
10460;BME280;54412;51.206;6.888;2023-01-25T03:55:30;102838.13;;;3.65;69.01
10460;BME280;54412;51.206;6.888;2023-01-25T03:57:56;102839.53;;;3.42;69.57
10460;BME280;54412;51.206;6.888;2023-01-25T04:00:22;102828.03;;;3.28;70.17
10460;BME280;54412;51.206;6.888;2023-01-25T04:02:48;102828.06;;;3.30;70.51
10460;BME280;54412;51.206;6.888;2023-01-25T04:05:13;102826.31;;;3.29;70.21
10460;BME280;54412;51.206;6.888;2023-01-25T04:07:39;102818.75;;;3.48;70.13
10460;BME280;54412;51.206;6.888;2023-01-25T04:10:05;102819.56;;;3.44;70.13
10460;BME280;54412;51.206;6.888;2023-01-25T04:12:31;102821.41;;;3.53;69.77
10460;BME280;54412;51.206;6.888;2023-01-25T04:14:57;102808.19;;;3.38;70.87
10460;BME280;54412;51.206;6.888;2023-01-25T04:17:23;102802.31;;;3.54;70.63
10460;BME280;54412;51.206;6.888;2023-01-25T04:19:48;102800.72;;;3.63;70.14
10460;BME280;54412;51.206;6.888;2023-01-25T04:22:14;102795.31;;;3.53;71.28
10460;BME280;54412;51.206;6.888;2023-01-25T04:24:41;102798.69;;;3.43;70.81
10460;BME280;54412;51.206;6.888;2023-01-25T04:27:08;102789.31;;;3.58;70.64
10460;BME280;54412;51.206;6.888;2023-01-25T04:29:34;102789.50;;;3.72;70.18
10460;BME280;54412;51.206;6.888;2023-01-25T04:32:00;102787.13;;;3.93;70.28
10460;BME280;54412;51.206;6.888;2023-01-25T04:34:26;102783.59;;;3.88;69.62
10460;BME280;54412;51.206;6.888;2023-01-25T04:36:51;102782.56;;;3.74;69.34
10460;BME280;54412;51.206;6.888;2023-01-25T04:39:18;102780.66;;;3.59;69.93
10460;BME280;54412;51.206;6.888;2023-01-25T04:41:44;102784.06;;;3.54;70.43
10460;BME280;54412;51.206;6.888;2023-01-25T04:44:10;102784.72;;;3.39;70.77
10460;BME280;54412;51.206;6.888;2023-01-25T04:46:39;102779.16;;;3.15;71.73
10460;BME280;54412;51.206;6.888;2023-01-25T04:49:05;102779.00;;;3.04;72.18
10460;BME280;54412;51.206;6.888;2023-01-25T04:51:31;102778.31;;;3.16;72.42
10460;BME280;54412;51.206;6.888;2023-01-25T04:53:56;102774.69;;;3.05;72.52
10460;BME280;54412;51.206;6.888;2023-01-25T04:56:22;102779.41;;;3.33;71.73
10460;BME280;54412;51.206;6.888;2023-01-25T04:58:47;102776.88;;;3.36;71.21
10460;BME280;54412;51.206;6.888;2023-01-25T05:01:13;102772.44;;;3.31;71.74
10460;BME280;54412;51.206;6.888;2023-01-25T05:03:39;102772.19;;;3.14;72.40
10460;BME280;54412;51.206;6.888;2023-01-25T05:06:05;102763.00;;;3.40;71.88
10460;BME280;54412;51.206;6.888;2023-01-25T05:08:30;102764.53;;;3.26;71.82
10460;BME280;54412;51.206;6.888;2023-01-25T05:10:56;102756.53;;;3.11;72.69
10460;BME280;54412;51.206;6.888;2023-01-25T05:13:22;102763.38;;;3.04;73.10
10460;BME280;54412;51.206;6.888;2023-01-25T05:15:47;102763.47;;;3.12;72.84
10460;BME280;54412;51.206;6.888;2023-01-25T05:18:13;102755.03;;;3.31;72.74
10460;BME280;54412;51.206;6.888;2023-01-25T05:20:39;102758.72;;;3.45;71.71
10460;BME280;54412;51.206;6.888;2023-01-25T05:23:04;102749.69;;;3.22;72.51
10460;BME280;54412;51.206;6.888;2023-01-25T05:25:30;102760.38;;;3.40;72.16
10460;BME280;54412;51.206;6.888;2023-01-25T05:28:14;102748.03;;;3.26;72.43
10460;BME280;54412;51.206;6.888;2023-01-25T05:30:40;102755.22;;;3.42;71.68
10460;BME280;54412;51.206;6.888;2023-01-25T05:33:05;102737.81;;;3.42;71.75
10460;BME280;54412;51.206;6.888;2023-01-25T05:35:31;102740.28;;;3.32;72.33
10460;BME280;54412;51.206;6.888;2023-01-25T05:37:58;102746.00;;;3.06;73.42
10460;BME280;54412;51.206;6.888;2023-01-25T05:40:25;102740.59;;;2.91;74.30
10460;BME280;54412;51.206;6.888;2023-01-25T05:42:58;102747.19;;;3.28;73.16
10460;BME280;54412;51.206;6.888;2023-01-25T05:45:27;102747.81;;;3.09;73.56
10460;BME280;54412;51.206;6.888;2023-01-25T05:47:56;102741.84;;;3.17;73.69
10460;BME280;54412;51.206;6.888;2023-01-25T05:50:23;102747.78;;;3.07;74.20
10460;BME280;54412;51.206;6.888;2023-01-25T05:52:50;102754.84;;;3.14;74.13
10460;BME280;54412;51.206;6.888;2023-01-25T05:55:16;102746.28;;;3.26;73.45
10460;BME280;54412;51.206;6.888;2023-01-25T05:57:42;102745.47;;;3.29;73.31
10460;BME280;54412;51.206;6.888;2023-01-25T06:00:10;102743.78;;;3.34;73.47
10460;BME280;54412;51.206;6.888;2023-01-25T06:02:35;102748.31;;;3.47;73.08
10460;BME280;54412;51.206;6.888;2023-01-25T06:05:02;102739.22;;;3.89;71.91
10460;BME280;54412;51.206;6.888;2023-01-25T06:07:32;102736.53;;;3.80;72.16
10460;BME280;54412;51.206;6.888;2023-01-25T06:10:01;102738.16;;;3.71;71.66
10460;BME280;54412;51.206;6.888;2023-01-25T06:12:27;102738.50;;;4.01;71.74
10460;BME280;54412;51.206;6.888;2023-01-25T06:14:53;102731.44;;;3.92;71.73
10460;BME280;54412;51.206;6.888;2023-01-25T06:17:18;102735.91;;;4.02;72.05
10460;BME280;54412;51.206;6.888;2023-01-25T06:19:44;102724.56;;;3.99;71.50
10460;BME280;54412;51.206;6.888;2023-01-25T06:22:09;102735.22;;;4.23;71.26
10460;BME280;54412;51.206;6.888;2023-01-25T06:24:35;102731.31;;;3.83;73.04
10460;BME280;54412;51.206;6.888;2023-01-25T06:27:01;102737.63;;;4.00;72.09
10460;BME280;54412;51.206;6.888;2023-01-25T06:29:26;102731.00;;;3.55;72.40
10460;BME280;54412;51.206;6.888;2023-01-25T06:31:52;102730.09;;;3.51;72.67
10460;BME280;54412;51.206;6.888;2023-01-25T06:34:19;102730.09;;;3.51;73.05
10460;BME280;54412;51.206;6.888;2023-01-25T06:36:46;102725.97;;;3.71;72.83
10460;BME280;54412;51.206;6.888;2023-01-25T06:39:12;102731.75;;;3.43;73.49
10460;BME280;54412;51.206;6.888;2023-01-25T06:41:38;102730.16;;;3.57;72.53
10460;BME280;54412;51.206;6.888;2023-01-25T06:44:04;102730.88;;;3.46;73.10
10460;BME280;54412;51.206;6.888;2023-01-25T06:46:31;102733.44;;;3.38;73.75
10460;BME280;54412;51.206;6.888;2023-01-25T06:48:57;102729.06;;;3.40;73.51
10460;BME280;54412;51.206;6.888;2023-01-25T06:51:22;102730.25;;;3.63;72.89
10460;BME280;54412;51.206;6.888;2023-01-25T06:53:48;102742.38;;;3.60;72.81
10460;BME280;54412;51.206;6.888;2023-01-25T06:56:20;102731.84;;;3.51;73.08
10460;BME280;54412;51.206;6.888;2023-01-25T06:58:48;102738.91;;;3.62;72.17
10460;BME280;54412;51.206;6.888;2023-01-25T07:01:21;102731.78;;;3.49;73.46
10460;BME280;54412;51.206;6.888;2023-01-25T07:03:54;102731.06;;;3.58;73.59
10460;BME280;54412;51.206;6.888;2023-01-25T07:06:20;102734.56;;;3.60;73.12
10460;BME280;54412;51.206;6.888;2023-01-25T07:08:47;102735.38;;;3.57;73.47
10460;BME280;54412;51.206;6.888;2023-01-25T07:11:13;102732.56;;;3.41;73.89
10460;BME280;54412;51.206;6.888;2023-01-25T07:13:42;102720.56;;;3.53;73.63
10460;BME280;54412;51.206;6.888;2023-01-25T07:16:17;102733.53;;;3.47;73.57
10460;BME280;54412;51.206;6.888;2023-01-25T07:18:43;102731.91;;;3.58;73.27
10460;BME280;54412;51.206;6.888;2023-01-25T07:21:21;102736.09;;;3.44;73.59
10460;BME280;54412;51.206;6.888;2023-01-25T07:23:51;102726.88;;;3.73;72.96
10460;BME280;54412;51.206;6.888;2023-01-25T07:26:24;102725.84;;;3.59;73.57
10460;BME280;54412;51.206;6.888;2023-01-25T07:28:52;102732.81;;;3.62;73.26
10460;BME280;54412;51.206;6.888;2023-01-25T07:31:19;102727.69;;;3.69;73.33
10460;BME280;54412;51.206;6.888;2023-01-25T07:33:53;102728.50;;;3.62;73.23
10460;BME280;54412;51.206;6.888;2023-01-25T07:36:20;102725.94;;;3.67;73.04
10460;BME280;54412;51.206;6.888;2023-01-25T07:38:47;102725.75;;;3.52;73.17
10460;BME280;54412;51.206;6.888;2023-01-25T07:41:13;102731.94;;;3.60;73.63
10460;BME280;54412;51.206;6.888;2023-01-25T07:43:40;102720.84;;;3.77;73.10
10460;BME280;54412;51.206;6.888;2023-01-25T07:46:09;102733.38;;;3.35;73.95
10460;BME280;54412;51.206;6.888;2023-01-25T07:48:40;102726.78;;;3.64;73.60
10460;BME280;54412;51.206;6.888;2023-01-25T07:51:10;102725.66;;;3.44;73.71
10460;BME280;54412;51.206;6.888;2023-01-25T07:53:50;102716.13;;;3.46;73.74
10460;BME280;54412;51.206;6.888;2023-01-25T07:56:17;102720.41;;;3.41;74.03
10460;BME280;54412;51.206;6.888;2023-01-25T07:58:44;102710.19;;;3.59;73.64
10460;BME280;54412;51.206;6.888;2023-01-25T08:01:16;102705.00;;;3.61;73.44
10460;BME280;54412;51.206;6.888;2023-01-25T08:03:44;102699.69;;;3.55;73.76
10460;BME280;54412;51.206;6.888;2023-01-25T08:06:11;102701.59;;;3.69;73.45
10460;BME280;54412;51.206;6.888;2023-01-25T08:08:45;102708.59;;;3.72;72.94
10460;BME280;54412;51.206;6.888;2023-01-25T08:11:24;102717.97;;;3.56;73.49
10460;BME280;54412;51.206;6.888;2023-01-25T08:13:51;102710.97;;;3.51;74.01
10460;BME280;54412;51.206;6.888;2023-01-25T08:16:24;102717.13;;;3.56;73.69
10460;BME280;54412;51.206;6.888;2023-01-25T08:18:55;102717.91;;;3.49;74.01
10460;BME280;54412;51.206;6.888;2023-01-25T08:21:23;102710.22;;;3.62;73.65
10460;BME280;54412;51.206;6.888;2023-01-25T08:23:50;102715.56;;;3.74;72.71
10460;BME280;54412;51.206;6.888;2023-01-25T08:26:16;102716.03;;;3.39;74.49
10460;BME280;54412;51.206;6.888;2023-01-25T08:28:42;102710.00;;;3.44;74.44
10460;BME280;54412;51.206;6.888;2023-01-25T08:31:19;102710.13;;;3.53;73.75
10460;BME280;54412;51.206;6.888;2023-01-25T08:33:46;102709.19;;;3.48;73.83
10460;BME280;54412;51.206;6.888;2023-01-25T08:36:14;102698.03;;;3.60;73.34
10460;BME280;54412;51.206;6.888;2023-01-25T08:38:41;102695.31;;;3.52;73.97
10460;BME280;54412;51.206;6.888;2023-01-25T08:41:10;102703.91;;;3.44;74.00
10460;BME280;54412;51.206;6.888;2023-01-25T08:43:37;102703.09;;;3.49;73.69
10460;BME280;54412;51.206;6.888;2023-01-25T08:46:03;102699.75;;;3.59;73.18
10460;BME280;54412;51.206;6.888;2023-01-25T08:48:29;102684.84;;;3.49;74.01
10460;BME280;54412;51.206;6.888;2023-01-25T08:50:55;102696.34;;;3.63;73.44
10460;BME280;54412;51.206;6.888;2023-01-25T08:53:21;102696.97;;;3.46;73.91
10460;BME280;54412;51.206;6.888;2023-01-25T08:55:47;102697.72;;;3.34;74.43
10460;BME280;54412;51.206;6.888;2023-01-25T08:58:14;102696.84;;;3.37;74.33
10460;BME280;54412;51.206;6.888;2023-01-25T09:00:42;102696.13;;;3.45;74.65
10460;BME280;54412;51.206;6.888;2023-01-25T09:03:09;102698.19;;;3.76;75.92
10460;BME280;54412;51.206;6.888;2023-01-25T09:05:37;102697.13;;;3.58;74.63
10460;BME280;54412;51.206;6.888;2023-01-25T09:08:06;102689.72;;;3.98;73.58
10460;BME280;54412;51.206;6.888;2023-01-25T09:10:32;102690.28;;;3.69;73.92
10460;BME280;54412;51.206;6.888;2023-01-25T09:12:59;102689.34;;;3.64;74.39
10460;BME280;54412;51.206;6.888;2023-01-25T09:15:26;102686.75;;;3.64;73.60
10460;BME280;54412;51.206;6.888;2023-01-25T09:17:53;102675.31;;;3.53;74.29
10460;BME280;54412;51.206;6.888;2023-01-25T09:20:19;102684.09;;;3.59;74.01
10460;BME280;54412;51.206;6.888;2023-01-25T09:22:45;102681.50;;;3.61;73.81
10460;BME280;54412;51.206;6.888;2023-01-25T09:25:11;102678.91;;;3.61;73.58
10460;BME280;54412;51.206;6.888;2023-01-25T09:27:37;102685.03;;;3.67;73.28
10460;BME280;54412;51.206;6.888;2023-01-25T09:30:08;102683.28;;;3.65;73.80
10460;BME280;54412;51.206;6.888;2023-01-25T09:32:35;102675.44;;;3.63;74.09
10460;BME280;54412;51.206;6.888;2023-01-25T09:35:01;102674.50;;;3.57;74.10
10460;BME280;54412;51.206;6.888;2023-01-25T09:37:28;102672.78;;;3.57;73.45
10460;BME280;54412;51.206;6.888;2023-01-25T09:39:54;102670.09;;;3.51;73.42
10460;BME280;54412;51.206;6.888;2023-01-25T09:42:45;102655.28;;;3.49;73.78
10460;BME280;54412;51.206;6.888;2023-01-25T09:45:29;102663.91;;;3.43;74.25
10460;BME280;54412;51.206;6.888;2023-01-25T09:50:46;102654.38;;;3.47;74.00
10460;BME280;54412;51.206;6.888;2023-01-25T09:53:39;102652.63;;;3.46;74.40
10460;BME280;54412;51.206;6.888;2023-01-25T09:56:32;102652.59;;;3.43;74.43
10460;BME280;54412;51.206;6.888;2023-01-25T09:59:05;102658.13;;;3.73;73.67
10460;BME280;54412;51.206;6.888;2023-01-25T10:04:42;102648.66;;;3.79;73.03
10460;BME280;54412;51.206;6.888;2023-01-25T10:07:18;102639.38;;;4.13;72.36
10460;BME280;54412;51.206;6.888;2023-01-25T10:10:07;102647.03;;;3.92;72.67
10460;BME280;54412;51.206;6.888;2023-01-25T10:12:37;102638.28;;;3.88;72.74
10460;BME280;54412;51.206;6.888;2023-01-25T10:15:19;102641.34;;;3.48;74.00
10460;BME280;54412;51.206;6.888;2023-01-25T10:20:56;102637.97;;;3.57;74.09
10460;BME280;54412;51.206;6.888;2023-01-25T10:23:35;102637.94;;;3.52;73.88
10460;BME280;54412;51.206;6.888;2023-01-25T10:26:28;102633.78;;;3.72;73.66
10460;BME280;54412;51.206;6.888;2023-01-25T10:29:10;102639.06;;;3.80;73.36
10460;BME280;54412;51.206;6.888;2023-01-25T10:34:32;102623.25;;;3.63;72.75
10460;BME280;54412;51.206;6.888;2023-01-25T10:37:23;102630.41;;;3.82;72.91
10460;BME280;54412;51.206;6.888;2023-01-25T10:42:46;102615.53;;;3.75;73.12
10460;BME280;54412;51.206;6.888;2023-01-25T10:45:17;102610.34;;;3.78;72.72
10460;BME280;54412;51.206;6.888;2023-01-25T10:47:48;102605.00;;;3.63;73.35
10460;BME280;54412;51.206;6.888;2023-01-25T10:53:37;102595.56;;;3.77;72.70
10460;BME280;54412;51.206;6.888;2023-01-25T10:56:21;102592.88;;;3.73;72.87
10460;BME280;54412;51.206;6.888;2023-01-25T10:58:51;102587.66;;;3.71;73.48
10460;BME280;54412;51.206;6.888;2023-01-25T11:03:54;102578.19;;;3.84;72.71
10460;BME280;54412;51.206;6.888;2023-01-25T11:06:37;102576.75;;;4.20;70.79
10460;BME280;54412;51.206;6.888;2023-01-25T11:09:32;102579.09;;;3.87;71.72
10460;BME280;54412;51.206;6.888;2023-01-25T11:12:01;102574.63;;;3.73;72.27
10460;BME280;54412;51.206;6.888;2023-01-25T11:14:32;102569.31;;;3.62;72.35
10460;BME280;54412;51.206;6.888;2023-01-25T11:17:02;102567.75;;;3.84;72.37
10460;BME280;54412;51.206;6.888;2023-01-25T11:19:38;102564.41;;;3.98;71.12
10460;BME280;54412;51.206;6.888;2023-01-25T11:24:45;102564.16;;;3.71;72.79
10460;BME280;54412;51.206;6.888;2023-01-25T11:27:24;102551.41;;;4.10;71.01
10460;BME280;54412;51.206;6.888;2023-01-25T11:30:16;102545.09;;;3.77;72.05
10460;BME280;54412;51.206;6.888;2023-01-25T11:32:45;102550.38;;;3.87;71.74
10460;BME280;54412;51.206;6.888;2023-01-25T11:35:21;102543.19;;;3.59;72.73
10460;BME280;54412;51.206;6.888;2023-01-25T11:38:07;102531.06;;;3.64;72.65
10460;BME280;54412;51.206;6.888;2023-01-25T11:44:17;102522.41;;;3.67;72.10
10460;BME280;54412;51.206;6.888;2023-01-25T11:50:26;102517.03;;;3.50;72.62
10460;BME280;54412;51.206;6.888;2023-01-25T11:53:25;102498.69;;;3.43;72.81
10460;BME280;54412;51.206;6.888;2023-01-25T11:56:30;102481.34;;;3.48;72.87
10460;BME280;54412;51.206;6.888;2023-01-25T12:08:32;102465.84;;;3.69;72.32
10460;BME280;54412;51.206;6.888;2023-01-25T12:11:39;102463.97;;;3.51;73.06
10460;BME280;54412;51.206;6.888;2023-01-25T12:15:01;102454.47;;;3.58;72.13
10460;BME280;54412;51.206;6.888;2023-01-25T12:17:26;102440.50;;;3.53;72.70
10460;BME280;54412;51.206;6.888;2023-01-25T12:23:34;102428.50;;;3.77;71.47
10460;BME280;54412;51.206;6.888;2023-01-25T12:26:27;102415.28;;;3.55;71.80
10460;BME280;54412;51.206;6.888;2023-01-25T12:35:32;102395.25;;;3.45;72.99
10460;BME280;54412;51.206;6.888;2023-01-25T12:38:08;102399.63;;;3.52;73.24
10460;BME280;54412;51.206;6.888;2023-01-25T12:43:30;102376.09;;;3.44;72.69
10460;BME280;54412;51.206;6.888;2023-01-25T12:46:00;102383.06;;;3.45;73.44
10460;BME280;54412;51.206;6.888;2023-01-25T12:48:35;102380.66;;;3.74;72.63
10460;BME280;54412;51.206;6.888;2023-01-25T12:51:02;102363.16;;;3.58;72.02
10460;BME280;54412;51.206;6.888;2023-01-25T12:53:45;102360.63;;;3.70;71.87
10460;BME280;54412;51.206;6.888;2023-01-25T12:56:40;102345.78;;;3.66;72.57
10460;BME280;54412;51.206;6.888;2023-01-25T12:59:16;102351.94;;;3.72;71.83
10460;BME280;54412;51.206;6.888;2023-01-25T13:02:16;102335.28;;;3.51;71.77
10460;BME280;54412;51.206;6.888;2023-01-25T13:05:13;102326.56;;;3.47;72.15
10460;BME280;54412;51.206;6.888;2023-01-25T13:10:30;102315.31;;;3.60;72.17
10460;BME280;54412;51.206;6.888;2023-01-25T13:13:01;102308.28;;;3.43;72.54
10460;BME280;54412;51.206;6.888;2023-01-25T13:15:43;102310.00;;;3.39;72.49
10460;BME280;54412;51.206;6.888;2023-01-25T13:20:59;102291.63;;;3.21;73.46
10460;BME280;54412;51.206;6.888;2023-01-25T13:23:37;102301.28;;;3.33;73.50
10460;BME280;54412;51.206;6.888;2023-01-25T13:28:52;102300.59;;;3.67;72.89
10460;BME280;54412;51.206;6.888;2023-01-25T13:37:15;102287.41;;;3.41;73.37
10460;BME280;54412;51.206;6.888;2023-01-25T13:39:53;102295.19;;;3.37;73.52
10460;BME280;54412;51.206;6.888;2023-01-25T13:42:25;102282.22;;;3.47;72.95
10460;BME280;54412;51.206;6.888;2023-01-25T13:45:11;102275.91;;;3.12;74.25
10460;BME280;54412;51.206;6.888;2023-01-25T13:47:41;102283.69;;;3.06;75.02
10460;BME280;54412;51.206;6.888;2023-01-25T13:52:57;102278.53;;;3.10;75.25
10460;BME280;54412;51.206;6.888;2023-01-25T13:55:24;102269.09;;;3.31;74.50
10460;BME280;54412;51.206;6.888;2023-01-25T13:57:50;102271.69;;;3.31;74.63
10460;BME280;54412;51.206;6.888;2023-01-25T14:00:17;102268.34;;;3.54;74.17
10460;BME280;54412;51.206;6.888;2023-01-25T14:02:51;102269.25;;;3.59;73.56
10460;BME280;54412;51.206;6.888;2023-01-25T14:05:21;102261.31;;;3.46;74.21
10460;BME280;54412;51.206;6.888;2023-01-25T14:07:52;102264.75;;;3.33;74.15
10460;BME280;54412;51.206;6.888;2023-01-25T14:10:23;102260.44;;;3.36;74.21
10460;BME280;54412;51.206;6.888;2023-01-25T14:12:57;102249.22;;;3.54;73.31
10460;BME280;54412;51.206;6.888;2023-01-25T14:15:31;102255.31;;;3.54;73.32
10460;BME280;54412;51.206;6.888;2023-01-25T14:18:17;102243.19;;;3.70;72.79
10460;BME280;54412;51.206;6.888;2023-01-25T14:20:46;102254.28;;;3.25;73.96
10460;BME280;54412;51.206;6.888;2023-01-25T14:23:29;102253.44;;;3.31;74.66
10460;BME280;54412;51.206;6.888;2023-01-25T14:25:58;102247.44;;;3.47;74.42
10460;BME280;54412;51.206;6.888;2023-01-25T14:28:25;102247.53;;;3.69;72.95
10460;BME280;54412;51.206;6.888;2023-01-25T14:30:57;102242.25;;;3.54;73.92
10460;BME280;54412;51.206;6.888;2023-01-25T14:33:29;102244.84;;;3.47;74.05
10460;BME280;54412;51.206;6.888;2023-01-25T14:36:12;102248.44;;;3.77;73.07
10460;BME280;54412;51.206;6.888;2023-01-25T14:38:42;102240.59;;;3.77;73.41
10460;BME280;54412;51.206;6.888;2023-01-25T14:41:30;102248.38;;;3.59;73.28
10460;BME280;54412;51.206;6.888;2023-01-25T14:44:09;102247.59;;;3.87;72.87
10460;BME280;54412;51.206;6.888;2023-01-25T14:46:38;102241.44;;;3.78;72.99
10460;BME280;54412;51.206;6.888;2023-01-25T14:49:24;102240.53;;;3.58;73.65